AirNav   Air Wisconsin Airman Trainee
 
 1472 users online  

09W South Capitol Street Heliport
Washington, District of Columbia, USA

GOING TO WASHINGTON?


FAA INFORMATION EFFECTIVE 23 MAY 2019

Location

FAA Identifier: 09W
Lat/Long: 38-52-07.4040N / 077-00-26.9130W
38-52.123400N / 077-00.448550W
38.8687233 / -77.0074758
(estimated)
Elevation: 10 ft. / 3.0 m (surveyed)
Variation: 09W (1985)
Time zone: UTC -4 (UTC -5 during Standard Time)
Zip code: 20398

Heliport Operations

Heliport use: Open to the public
Activation date: 04/1974
Control tower: no
ARTCC: WASHINGTON CENTER
FSS: LEESBURG FLIGHT SERVICE STATION
NOTAMs facility: DCA (NOTAM-D service available)
Attendance: MON-FRI 0700-1900, ALL SAT-SUN 1100-1900
OPEN HOLIDAYS UPON RESERVATION.
Wind indicator: lighted
Segmented circle: no
Lights: SS-SR
Beacon: white-green-yellow (heliport)
Operates sunset to sunrise.

Heliport Communications

CTAF/UNICOM: 123.05
WX ASOS at DCA (1.8 nm SW): 132.65 (703-412-8140)
WX AWOS-3 at CGS (8 nm NE): 121.225 (301-864-5497)
WX AWOS-3 at FME (17 nm NE): 123.925
WX AWOS-3PT at GAI (19 nm N): 128.275 (301-977-2971)

Nearby radio navigation aids

VOR radial/distance  VOR name  Freq  Var
DCAr077/1.5WASHINGTON VOR/DME111.0009W
ADWr309/7.6ANDREWS VORTAC113.1010W
OTTr318/15.7NOTTINGHAM VORTAC113.7010W
AMLr108/21.8ARMEL VOR/DME113.5008W
BALr233/24.3BALTIMORE VORTAC115.1011W
BRVr036/35.8BROOKE VORTAC114.5009W
FDKr160/(36.8)FREDERICK VOR109.0008W
EMIr190/37.6WESTMINSTER VORTAC117.9008W

 
NDB name  Hdg/Dist  Freq  Var  ID
OXONN020/6.233211WDCA -.. -.-. .-
GEORGETOWN133/6.632309WGTN --. - -.
DAVEE030/13.322309WDAA -.. .- .-
ELLICOTT214/27.337111WFND ..-. -. -..

Heliport Services

Fuel available: A
Airframe service: NONE
Powerplant service: NONE

Runway Information

Helipad H1

Dimensions: 60 x 60 ft. / 18 x 18 m
Surface: asphalt, in good condition
Runway edge lights: PERI
Latitude: 38-52.123400N
Longitude: 077-00.448550W
Elevation: 10.0 ft.
Traffic pattern: leftleft
Markings: , in fair condition
Approach lights: RLLS

Heliport Ownership and Management from official FAA records

Ownership: Privately-owned
Owner: SOUTH CAPITOL STREET HELIPORT, LLC
115 VALLEYVIEW RD
FAIRFIELD, CT 06824
Phone 203-856-6407
Manager: DON SCIMONELLI
1724 S CAPITAL ST SE
WASHINGTON, DC 20003
Phone 202-484-8616

Heliport Operational Statistics

Aircraft based on the field: 1
Helicopters: 1
    
Aircraft operations: avg 33/month *
50% transient general aviation
50% local general aviation
* for 12-month period ending 05 December 1997

Additional Remarks

A52-H1 75 FT LGTD BRIDGE 500 FT E; + 50 FT STACK 400 FT W; +40 FT BLDG 60 FT NE.
INGRESS & EGRESS ROUTES NE & SW OVER ANACOSTIA RIVER.
LARGE LOOSE GRAVEL SOUTH & WEST OF PAVEMENT.
FOR CD CTC POTOMAC APCH AT 866-599-3874.

Instrument Procedures

There are no published instrument procedures at 09W.

Some nearby airports with instrument procedures:

KDCA - Ronald Reagan Washington National Airport (2 nm SW)
KADW - Joint Base Andrews (7 nm SE)
KVKX - Potomac Airfield (8 nm S)
KCGS - College Park Airport (8 nm NE)
W32 - Washington Executive Airport/Hyde Field (8 nm SE)
W00 - Freeway Airport (12 nm E)
KDAA - Davison Army Airfield (12 nm SW)
2W5 - Maryland Airport (17 nm S)
KFME - Tipton Airport (17 nm NE)
KGAI - Montgomery County Airpark (19 nm N)
 
Loc | Ops | Rwys | IFR | FBO | Links
Com | Nav | Svcs | Stats | Notes
Area around 09W (South Capitol Street Heliport)
 
Road maps at: MapQuest Bing Google
 
Aerial photo
WARNING: Photo may not be current or correct
Aerial photo of 09W (South Capitol Street Heliport)
Photo courtesy of Steven Bussman
Bussman Aviation
Photo taken 29-Apr-2012
looking northeast.

Do you have a better or more recent aerial photo of South Capitol Street Heliport that you would like to share? If so, please send us your photo.

 
Sectional chart

 
Airport distance calculator
Flying to South Capitol Street Heliport? Find the distance to fly.

From to 09W

Sunrise and sunset
Times for 18-Jun-2019
 Local
(UTC-4)
 Zulu
(UTC)
Morning civil twilight05:1109:11
Sunrise05:4309:43
Sunset20:3500:35
Evening civil twilight21:0701:07

Current date and time
Zulu (UTC)  18-Jun-2019 15:56:15
Local (UTC-4)  18-Jun-2019 11:56:15
 
METAR
KDCA 
2nm SW 
181452Z 17005KT 10SM FEW015 FEW110 BKN160 BKN250 26/22 A2994 RMK AO2 SLP138 T02610222 53000
KADW 
7nm SE 
181456Z AUTO 00000KT 10SM SCT014 SCT200 26/22 A2994 RMK AO2 SLP143 T02600216 52003 $
KVKX 
8nm S 
SuperAWOS
181535Z AUTO 24004KT 10SM 26/23 A2995
KCGS 
8nm NE 
181523Z AUTO 00000KT 10SM SCT100 SCT120 27/21 A2993 RMK AO1 T02650211
KDAA 
12nm SW 
181456Z COR 15002KT 10SM FEW005 BKN090 A2997 RMK AO2A SLP151 WND DATA/ALSTG ESTMD COR 1502
KFME 
17nm NE 
181521Z AUTO 17003KT 10SM 26/22 A2996 RMK AO1
KGAI 
19nm N 
181456Z AUTO 25005KT 10SM FEW020 OVC100 27/22 A2996 RMK AO2 SLPNO 6//// T02670222
TAF
KDCA 
2nm SW 
181141Z 1812/1918 21004KT P6SM FEW005 BKN150 FM181800 26007KT 5SM -SHRA VCTS SCT025CB OVC045 FM190300 20004KT 6SM -SHRA SCT020 OVC035 FM190900 20004KT 6SM -SHRA OVC020
KADW 
7nm SE 
180900Z 1809/1915 24006KT 9999 FEW050 BKN120 BKN250 QNH2989INS BECMG 1815/1816 25009KT 9999 -SHRA BKN050 BKN120 BKN250 QNH2983INS TEMPO 1820/1901 26025G35KT 1600 +TSRA BKN035CB OVC120 BECMG 1901/1902 VRB04KT 6000 -SHRA BR BKN050 OVC120 QNH2980INS BECMG 1906/1907 18006KT 9999 NSW SCT050 OVC120 QNH2976INS BECMG 1911/1912 VRB06KT 8000 BR SCT007 QNH2983INS TX32/1819Z TN21/1809Z
KDAA 
12nm SW 
180900Z 1809/1915 24006KT 9999 FEW025 BKN065 QNH2990INS BECMG 1815/1816 25009KT 9000 -SHRA BKN035 OVC140 QNH2984INS TEMPO 1818/1823 26025G35KT 2400 -TSRA BKN035CB OVC120 BECMG 1906/1907 18006KT 9999 NSW BKN025 OVC130 QNH2978INS BECMG 1911/1912 VRB06KT 8000 BR SCT007 QNH2985INS TX30/1817Z TN21/1908Z
NOTAMs
Click for the latest NOTAMs
NOTAMs are issued by the DoD/FAA and will open in a separate window not controlled by AirNav.

 

 
 

FBO, Fuel Providers, and Aircraft Ground Support

  
 Business Name 
 
 Contact 
 
 Services / Description 
 
Fuel Prices
 
Comments
  
South Capitol Street Heliport FBO UNICOM 123.05
202-484-8616
202-527-8687
[email]

Like us on facebook
Airport management, Aviation fuel, Aircraft parking (ramp or tiedown), Hangars, Hangar leasing / sales, Passenger terminal and lounge, ...
 
U.S. Government AIR Card  
 
More info about South Capitol Street Heliport FBO
independent
Jet A
AS $7.85 
 Updated 11-Jun-2019
 
   write
AS=Assisted/Self Service
Update Fuel Prices
 

Would you like to see your business listed on this page?

 If your business provides an interesting product or service to pilots, flight crews, aircraft, or users of the South Capitol Street Heliport, you should consider listing it here.  To start the listing process, click on the button below
 
Add a business
 

Other Pages about South Capitol Street Heliport

Update a link
 
Copyright © AirNav, LLC. All rights reserved. Privacy Policy  Contact